createdAt,value
2018-11-25T00:00:33.238Z,10.97
2018-11-25T00:05:37.736Z,10.80
2018-11-25T00:10:59.984Z,8.43
2018-11-25T00:16:05.562Z,9.83
2018-11-25T00:21:12.760Z,8.07
2018-11-25T00:26:17.190Z,9.77
2018-11-25T00:31:21.629Z,9.00
2018-11-25T00:36:26.039Z,7.93
2018-11-25T00:41:30.504Z,10.73
2018-11-25T00:46:34.962Z,10.90
2018-11-25T00:51:39.418Z,8.47
2018-11-25T00:56:43.849Z,9.43
2018-11-25T01:01:48.290Z,9.10
2018-11-25T01:06:52.849Z,8.63
2018-11-25T01:11:57.289Z,7.73
2018-11-25T01:17:01.710Z,9.10
2018-11-25T01:22:06.116Z,8.43
2018-11-25T01:27:10.606Z,8.43
2018-11-25T01:32:15.084Z,7.97
2018-11-25T01:37:19.542Z,8.77
2018-11-25T01:42:24.029Z,11.07
2018-11-25T01:47:28.511Z,10.43
2018-11-25T01:52:33.002Z,6.67
2018-11-25T01:57:37.433Z,8.67
2018-11-25T02:02:41.881Z,8.10
2018-11-25T02:07:46.332Z,8.03
2018-11-25T02:12:50.799Z,11.93
2018-11-25T02:17:55.226Z,11.93
2018-11-25T02:22:59.662Z,10.53
2018-11-25T02:28:04.121Z,12.67
2018-11-25T02:33:08.597Z,12.17
2018-11-25T02:38:13.073Z,11.33
2018-11-25T02:43:17.522Z,12.33
2018-11-25T02:48:22.014Z,11.67
2018-11-25T02:53:26.425Z,14.00
2018-11-25T02:58:30.900Z,15.90
2018-11-25T03:03:35.485Z,17.13
2018-11-25T03:08:39.935Z,15.97
2018-11-25T03:13:44.386Z,16.57
2018-11-25T03:18:48.815Z,17.53
2018-11-25T03:23:53.242Z,17.17
2018-11-25T03:28:57.690Z,20.90
2018-11-25T03:34:02.182Z,21.33
2018-11-25T03:39:08.045Z,13.87
2018-11-25T03:44:12.509Z,21.37
2018-11-25T03:49:17.004Z,20.30
2018-11-25T03:54:21.447Z,19.07
2018-11-25T03:59:25.899Z,16.03
2018-11-25T04:04:30.352Z,17.97
2018-11-25T04:09:34.814Z,20.57
2018-11-25T04:14:39.291Z,16.57
2018-11-25T04:19:43.760Z,18.00
2018-11-25T04:24:48.224Z,20.20
2018-11-25T04:29:52.685Z,17.13
2018-11-25T04:34:57.131Z,23.13
2018-11-25T04:40:01.582Z,22.10
2018-11-25T04:45:13.002Z,15.00
2018-11-25T04:50:19.338Z,22.83
2018-11-25T05:06:37.034Z,22.07
2018-11-25T05:11:41.503Z,16.30
2018-11-25T05:16:45.985Z,16.13
2018-11-25T05:21:50.438Z,17.77
2018-11-25T05:26:54.902Z,15.77
2018-11-25T05:31:59.388Z,14.50
2018-11-25T05:37:03.817Z,13.20
2018-11-25T05:42:08.271Z,13.37
2018-11-25T05:47:12.732Z,13.83
2018-11-25T05:52:17.189Z,12.33
2018-11-25T05:57:39.660Z,15.47
2018-11-25T06:02:44.141Z,15.73
2018-11-25T06:07:48.596Z,17.53
2018-11-25T06:12:53.821Z,13.83
2018-11-25T06:17:58.305Z,14.63
2018-11-25T06:23:02.842Z,9.50
2018-11-25T06:28:07.327Z,10.80
2018-11-25T06:33:11.780Z,11.37
2018-11-25T06:38:16.384Z,12.20
2018-11-25T06:43:35.162Z,11.47
2018-11-25T06:48:39.623Z,14.10
2018-11-25T06:53:44.042Z,9.83
2018-11-25T06:58:48.482Z,10.37
2018-11-25T07:03:53.008Z,8.67
2018-11-25T07:08:57.480Z,9.20
2018-11-25T07:14:01.972Z,12.57
2018-11-25T07:19:19.498Z,12.97
2018-11-25T07:24:25.728Z,34.10
2018-11-25T07:29:30.650Z,21.50
2018-11-25T07:34:43.150Z,14.67
2018-11-25T07:39:47.656Z,14.43
2018-11-25T07:44:52.163Z,18.17
2018-11-25T07:50:08.633Z,12.30
2018-11-25T07:55:17.979Z,10.30
2018-11-25T08:00:26.643Z,11.03
2018-11-25T08:05:31.161Z,9.73
2018-11-25T08:10:35.688Z,15.37
2018-11-25T08:16:05.155Z,20.43
2018-11-25T08:21:10.081Z,20.13
2018-11-25T08:26:17.136Z,23.80
2018-11-25T08:31:22.423Z,17.33
2018-11-25T08:42:06.445Z,11.00
2018-11-25T08:47:11.156Z,10.90
2018-11-25T08:52:15.818Z,8.37
2018-11-25T08:57:20.617Z,12.93
2018-11-25T09:02:25.132Z,17.90
2018-11-25T09:07:29.620Z,10.60
2018-11-25T09:12:34.358Z,43.37
2018-11-25T09:17:38.997Z,160.87
2018-11-25T09:22:43.549Z,47.07
2018-11-25T09:27:48.121Z,27.83
2018-11-25T09:32:52.627Z,12.30
2018-11-25T09:37:57.156Z,89.27
2018-11-25T09:43:03.007Z,288.80
2018-11-25T09:48:17.648Z,275.75
2018-11-25T09:59:29.674Z,126.27
2018-11-25T10:04:43.694Z,374.10
2018-11-25T10:09:49.164Z,466.50
2018-11-25T10:15:05.234Z,414.03
2018-11-25T10:25:52.750Z,99.10
2018-11-25T10:31:17.048Z,178.73
2018-11-25T10:36:32.390Z,374.90
2018-11-25T10:41:38.518Z,140.50
2018-11-25T10:57:53.626Z,86.57
2018-11-25T11:03:03.453Z,135.53
2018-11-25T11:08:08.750Z,89.27
2018-11-25T11:13:13.293Z,74.20
2018-11-25T11:18:36.947Z,185.10
2018-11-25T11:23:43.429Z,37.80
2018-11-25T11:28:49.329Z,31.57
2018-11-25T11:34:04.239Z,34.63
2018-11-25T11:39:10.543Z,42.03
2018-11-25T11:44:15.853Z,27.53
2018-11-25T11:49:22.477Z,18.00
2018-11-25T11:54:29.353Z,19.30
2018-11-25T11:59:36.039Z,27.77
2018-11-25T12:04:51.436Z,31.07
2018-11-25T12:10:00.363Z,20.40
2018-11-25T12:15:05.936Z,38.23
2018-11-25T12:20:11.740Z,39.60
2018-11-25T12:25:18.031Z,22.07
2018-11-25T12:30:23.754Z,25.57
2018-11-25T12:35:29.050Z,27.77
2018-11-25T12:40:34.452Z,28.20
2018-11-25T12:45:39.746Z,20.60
2018-11-25T12:50:44.606Z,19.37
2018-11-25T12:55:59.145Z,26.43
2018-11-25T13:01:24.383Z,25.33
2018-11-25T13:06:46.144Z,26.20
2018-11-25T13:11:52.453Z,23.90
2018-11-25T13:16:55.889Z,30.87
2018-11-25T13:22:00.523Z,29.70
2018-11-25T13:27:05.073Z,39.27
2018-11-25T13:32:11.233Z,30.87
2018-11-25T13:37:15.986Z,33.57
2018-11-25T13:42:23.387Z,37.63
2018-11-25T13:47:30.807Z,42.83
2018-11-25T13:52:37.006Z,40.60
2018-11-25T13:57:41.529Z,45.77
2018-11-25T14:02:46.258Z,42.70
2018-11-25T14:07:50.914Z,36.40
2018-11-25T14:12:55.365Z,33.57
2018-11-25T14:17:59.821Z,38.80
2018-11-25T14:23:04.306Z,43.27
2018-11-25T14:28:11.103Z,39.23
2018-11-25T14:33:15.543Z,40.50
2018-11-25T14:38:20.031Z,32.63
2018-11-25T14:43:24.518Z,36.97
2018-11-25T14:48:29.149Z,48.43
2018-11-25T14:53:33.604Z,38.20
2018-11-25T14:58:38.436Z,33.93
2018-11-25T15:03:42.982Z,37.67
2018-11-25T15:08:47.755Z,38.73
2018-11-25T15:13:52.394Z,40.10
2018-11-25T15:18:57.057Z,38.40
2018-11-25T15:24:01.603Z,40.33
2018-11-25T15:29:06.238Z,48.90
2018-11-25T15:34:10.810Z,47.73
2018-11-25T15:39:15.389Z,60.47
2018-11-25T15:44:19.886Z,58.10
2018-11-25T15:49:24.375Z,46.00
2018-11-25T15:54:28.948Z,41.63
2018-11-25T15:59:33.489Z,40.67
2018-11-25T16:04:42.939Z,37.23
2018-11-25T16:09:55.540Z,45.37
2018-11-25T16:15:00.264Z,44.30
2018-11-25T16:20:05.853Z,37.20
2018-11-25T16:25:21.950Z,39.23
2018-11-25T16:30:26.490Z,43.00
2018-11-25T16:35:31.068Z,43.07
2018-11-25T16:40:35.565Z,44.77
2018-11-25T16:45:49.816Z,72.87
2018-11-25T16:50:54.289Z,50.60
2018-11-25T16:55:58.775Z,47.07
2018-11-25T17:01:09.784Z,49.03
2018-11-25T17:06:08.565Z,64.63
2018-11-25T17:11:14.366Z,48.37
2018-11-25T17:16:19.226Z,54.07
2018-11-25T17:21:36.135Z,45.00
2018-11-25T17:26:40.599Z,41.03
2018-11-25T17:31:45.138Z,41.47
2018-11-25T17:36:54.094Z,41.83
2018-11-25T17:41:58.626Z,36.60
2018-11-25T17:47:03.119Z,39.03
2018-11-25T17:52:07.617Z,40.37
2018-11-25T17:57:12.148Z,46.13
2018-11-25T18:02:16.699Z,73.43
2018-11-25T18:07:21.200Z,52.33
2018-11-25T18:12:26.746Z,48.40
2018-11-25T18:17:31.308Z,51.10
2018-11-25T18:22:36.272Z,49.90
2018-11-25T18:27:40.749Z,44.83
2018-11-25T18:32:45.792Z,48.97
2018-11-25T18:37:50.373Z,45.50
2018-11-25T18:42:54.865Z,42.00
2018-11-25T18:47:59.428Z,47.03
2018-11-25T18:53:03.902Z,43.23
2018-11-25T18:58:08.435Z,50.60
2018-11-25T19:03:12.972Z,39.33
2018-11-25T19:08:17.526Z,49.20
2018-11-25T19:13:22.034Z,44.77
2018-11-25T19:18:26.675Z,51.90
2018-11-25T19:23:31.609Z,55.70
2018-11-25T19:28:38.576Z,48.60
2018-11-25T19:33:46.234Z,57.67
2018-11-25T19:38:51.421Z,55.40
2018-11-25T19:43:56.307Z,52.30
2018-11-25T19:49:01.209Z,53.73
2018-11-25T19:54:06.302Z,44.43
2018-11-25T19:59:11.174Z,47.33
2018-11-25T20:04:15.773Z,52.53
2018-11-25T20:09:20.328Z,42.53
2018-11-25T20:14:25.239Z,47.73
2018-11-25T20:19:32.873Z,56.87
2018-11-25T20:24:37.418Z,57.53
2018-11-25T20:29:41.982Z,58.60
2018-11-25T20:34:46.553Z,67.90
2018-11-25T20:39:51.164Z,56.83
2018-11-25T20:49:23.901Z,50.77
2018-11-25T20:54:28.729Z,61.73
2018-11-25T20:59:36.062Z,65.83
2018-11-25T21:04:40.686Z,52.83
2018-11-25T21:09:46.513Z,46.83
2018-11-25T21:14:51.118Z,52.70
2018-11-25T21:19:56.020Z,44.27
2018-11-25T21:25:00.658Z,40.60
2018-11-25T21:30:08.739Z,44.57
2018-11-25T21:35:13.763Z,44.87
2018-11-25T21:40:20.030Z,38.93
2018-11-25T21:45:24.601Z,37.80
2018-11-25T21:50:29.642Z,39.27
2018-11-25T21:55:34.149Z,43.73
2018-11-25T22:00:38.691Z,36.93
2018-11-25T22:05:43.290Z,36.33
2018-11-25T22:10:47.864Z,45.50
2018-11-25T22:15:52.420Z,39.77
2018-11-25T22:20:56.958Z,39.27
2018-11-25T22:26:01.481Z,42.97
2018-11-25T22:31:07.308Z,42.70
2018-11-25T22:36:11.895Z,44.10
2018-11-25T22:41:16.475Z,37.27
2018-11-25T22:46:21.029Z,35.13
2018-11-25T22:51:25.595Z,34.30
2018-11-25T22:56:30.148Z,33.63
2018-11-25T23:01:34.685Z,35.60
2018-11-25T23:06:50.315Z,37.67
2018-11-25T23:11:54.900Z,38.77
2018-11-25T23:16:59.457Z,45.40
2018-11-25T23:22:04.132Z,38.70
2018-11-25T23:27:08.734Z,41.93
2018-11-25T23:32:13.363Z,38.57
2018-11-25T23:37:17.971Z,37.23
2018-11-25T23:42:22.575Z,42.37
2018-11-25T23:47:27.116Z,41.43
2018-11-25T23:52:31.714Z,37.20
2018-11-25T23:57:36.374Z,35.97
